Time;durP1;ratioP1;P1;durP2;ratioP2;P2;SDS_P1;SDS_P2;PMS_P1;PMS_P2;Temp;Humidity;BMP_temperature;BMP_pressure;BME280_temperature;BME280_humidity;BME280_pressure;Samples;Min_cycle;Max_cycle;Signal;HPM_P1;HPM_P2
2023/01/01 00:00:43;;;;;;;50.03;23.92;;;;;;;6.81;100.00;99670.69;4408064;32;20115;-69
2023/01/01 00:03:11;;;;;;;59.72;29.23;;;;;;;6.77;100.00;99668.34;4407966;32;20168;-69
2023/01/01 00:05:39;;;;;;;66.45;31.83;;;;;;;6.76;100.00;99664.91;4408173;32;20168;-69
2023/01/01 00:08:06;;;;;;;60.33;27.87;;;;;;;6.73;100.00;99659.91;4407995;32;20093;-69
2023/01/01 00:10:33;;;;;;;61.67;30.05;;;;;;;6.74;100.00;99667.63;4421460;32;20162;-69
2023/01/01 00:13:00;;;;;;;50.60;27.25;;;;;;;6.69;100.00;99668.81;4423094;32;20137;-70
2023/01/01 00:15:27;;;;;;;54.15;26.70;;;;;;;6.71;100.00;99666.97;4423367;32;20201;-69
2023/01/01 00:17:56;;;;;;;59.88;28.45;;;;;;;6.65;100.00;99672.53;4423063;32;20098;-69
2023/01/01 00:20:24;;;;;;;53.58;27.92;;;;;;;6.61;100.00;99674.47;4423360;32;20085;-69
2023/01/01 00:23:00;;;;;;;58.40;26.48;;;;;;;6.51;100.00;99671.56;4408040;32;20116;-69
2023/01/01 00:25:27;;;;;;;50.00;24.05;;;;;;;6.42;100.00;99664.31;4407928;32;20141;-70
2023/01/01 00:27:54;;;;;;;47.30;23.98;;;;;;;6.43;100.00;99668.56;4407741;32;20094;-69
2023/01/01 00:30:23;;;;;;;54.10;24.40;;;;;;;6.33;100.00;99667.44;4407695;32;20440;-69
2023/01/01 00:32:50;;;;;;;46.47;21.52;;;;;;;6.30;100.00;99651.97;4407997;32;20095;-70
2023/01/01 00:35:23;;;;;;;40.88;21.12;;;;;;;6.26;100.00;99660.91;4408105;32;20169;-69
2023/01/01 00:37:51;;;;;;;47.13;23.10;;;;;;;6.28;100.00;99649.44;4407976;32;20413;-69
2023/01/01 00:40:18;;;;;;;45.08;21.67;;;;;;;6.35;100.00;99656.00;4408064;32;20106;-69
2023/01/01 00:42:45;;;;;;;42.10;20.85;;;;;;;6.21;100.00;99659.38;4407696;32;20581;-69
2023/01/01 00:45:13;;;;;;;45.08;22.05;;;;;;;6.26;100.00;99660.91;4408005;32;20443;-69
2023/01/01 00:47:48;;;;;;;35.00;18.67;;;;;;;6.29;100.00;99653.75;4407831;32;20494;-69
2023/01/01 00:50:15;;;;;;;47.92;19.00;;;;;;;6.34;100.00;99659.53;4408113;32;20090;-69
2023/01/01 00:52:42;;;;;;;37.65;17.52;;;;;;;6.46;100.00;99663.19;4407815;32;20129;-70
2023/01/01 00:55:09;;;;;;;39.55;17.52;;;;;;;6.43;100.00;99657.31;4407915;32;20090;-69
2023/01/01 00:57:37;;;;;;;39.72;17.85;;;;;;;6.44;100.00;99659.84;4407829;32;20459;-69
2023/01/01 01:00:05;;;;;;;40.20;17.62;;;;;;;6.31;100.00;99657.09;4407852;32;20098;-69
2023/01/01 01:02:32;;;;;;;37.05;17.25;;;;;;;6.25;100.00;99660.03;4407802;32;20110;-69
2023/01/01 01:05:00;;;;;;;32.97;16.67;;;;;;;6.20;100.00;99669.88;4407959;32;20156;-69
2023/01/01 01:07:27;;;;;;;38.47;16.70;;;;;;;6.21;100.00;99664.59;4407570;32;20115;-69
2023/01/01 01:09:54;;;;;;;29.80;15.10;;;;;;;6.29;100.00;99665.94;4416998;32;20288;-69
2023/01/01 01:12:21;;;;;;;34.58;15.82;;;;;;;6.32;100.00;99668.34;4422937;32;20098;-69
2023/01/01 01:14:48;;;;;;;35.78;15.80;;;;;;;6.28;100.00;99659.03;4422971;32;20168;-69
2023/01/01 01:17:16;;;;;;;36.83;17.35;;;;;;;6.24;100.00;99671.41;4422693;32;20085;-69
2023/01/01 01:19:43;;;;;;;39.88;19.55;;;;;;;6.41;100.00;99664.38;4422573;32;20082;-69
2023/01/01 01:22:10;;;;;;;33.20;16.27;;;;;;;6.27;100.00;99667.75;4433419;32;20158;-69
2023/01/01 01:24:37;;;;;;;33.80;16.42;;;;;;;6.20;100.00;99660.31;4437988;32;20497;-69
2023/01/01 01:27:04;;;;;;;33.08;15.25;;;;;;;6.08;100.00;99653.19;4438092;32;20545;-69
2023/01/01 01:29:31;;;;;;;30.85;14.43;;;;;;;6.01;100.00;99655.31;4438203;32;20150;-69
2023/01/01 01:31:59;;;;;;;25.30;13.23;;;;;;;5.91;100.00;99656.72;4438018;32;20135;-69
2023/01/01 01:34:26;;;;;;;32.15;13.70;;;;;;;5.98;100.00;99662.44;4438094;32;20093;-69
2023/01/01 01:36:55;;;;;;;27.62;13.35;;;;;;;5.95;100.00;99667.78;4438199;32;20162;-69
2023/01/01 01:39:22;;;;;;;31.65;16.17;;;;;;;5.87;100.00;99661.25;4437837;32;20470;-69
2023/01/01 01:41:49;;;;;;;29.67;14.27;;;;;;;5.74;100.00;99662.84;4438116;32;20093;-69
2023/01/01 01:44:44;;;;;;;29.58;13.80;;;;;;;5.62;100.00;99668.72;4438015;32;20476;-69
2023/01/01 01:47:16;;;;;;;27.70;13.40;;;;;;;5.60;100.00;99666.22;4437998;32;20183;-69
2023/01/01 01:49:44;;;;;;;30.85;14.40;;;;;;;5.65;100.00;99671.16;4423800;32;20095;-69
2023/01/01 01:52:11;;;;;;;33.85;14.93;;;;;;;5.68;100.00;99671.81;4424084;32;20599;-69
2023/01/01 01:54:39;;;;;;;38.00;17.50;;;;;;;5.69;100.00;99667.44;4437526;32;20158;-69
2023/01/01 01:57:08;;;;;;;34.05;15.90;;;;;;;5.71;100.00;99670.81;4423847;32;20089;-69
2023/01/01 01:59:40;;;;;;;35.78;16.08;;;;;;;5.85;100.00;99663.09;4437955;32;20162;-69
2023/01/01 02:02:23;;;;;;;37.13;16.35;;;;;;;6.01;100.00;99667.47;4437712;32;20541;-69
2023/01/01 02:04:51;;;;;;;27.15;14.70;;;;;;;5.86;100.00;99667.38;4423721;32;20085;-69
2023/01/01 02:07:18;;;;;;;28.38;13.88;;;;;;;5.68;100.00;99668.41;4437746;32;20088;-69
2023/01/01 02:09:45;;;;;;;26.45;13.95;;;;;;;5.65;100.00;99679.78;4429170;32;20510;-69
2023/01/01 02:12:13;;;;;;;29.48;13.62;;;;;;;5.54;100.00;99676.09;4408280;32;20109;-69
2023/01/01 02:14:40;;;;;;;27.70;13.05;;;;;;;5.37;100.00;99677.00;4422313;32;20101;-69
2023/01/01 02:17:10;;;;;;;29.48;14.18;;;;;;;5.47;100.00;99665.19;4422075;32;20078;-69
2023/01/01 02:20:15;;;;;;;33.40;14.57;;;;;;;5.41;100.00;99662.94;4421955;32;20213;-69
2023/01/01 02:23:04;;;;;;;29.60;13.30;;;;;;;5.45;100.00;99670.47;4360421;32;20190;-69
2023/01/01 02:25:40;;;;;;;24.95;12.52;;;;;;;5.31;100.00;99680.75;4359103;32;20469;-69
2023/01/01 02:28:23;;;;;;;34.53;13.43;;;;;;;5.25;100.00;99678.47;4359348;32;20466;-69
2023/01/01 02:30:52;;;;;;;26.02;12.10;;;;;;;5.28;100.00;99680.91;4359068;32;20086;-69
2023/01/01 02:33:22;;;;;;;28.90;13.27;;;;;;;5.35;100.00;99684.03;4346923;32;20161;-69
2023/01/01 02:35:58;;;;;;;26.90;13.98;;;;;;;5.41;100.00;99681.13;4346816;32;20655;-69
2023/01/01 02:38:55;;;;;;;21.77;11.95;;;;;;;5.36;100.00;99686.56;4346921;32;20146;-69
2023/01/01 02:41:25;;;;;;;24.52;11.90;;;;;;;5.28;100.00;99688.72;4314763;33;20151;-69
2023/01/01 02:43:52;;;;;;;24.55;11.75;;;;;;;5.33;100.00;99694.53;4314916;33;20518;-69
2023/01/01 02:46:19;;;;;;;25.55;11.70;;;;;;;5.30;100.00;99702.47;4314532;33;20325;-69
2023/01/01 02:48:50;;;;;;;26.48;11.40;;;;;;;5.39;100.00;99694.19;4314716;33;20112;-69
2023/01/01 02:51:38;;;;;;;25.62;10.68;;;;;;;5.39;100.00;99691.59;4314760;33;20135;-69
2023/01/01 02:54:11;;;;;;;25.37;11.68;;;;;;;5.26;100.00;99685.38;4316788;33;20147;-69
2023/01/01 02:56:45;;;;;;;20.45;9.80;;;;;;;5.13;100.00;99685.16;4329613;33;20115;-69
2023/01/01 03:02:41;;;;;;;22.67;11.48;;;;;;;4.80;100.00;99668.66;4346293;33;20282;-69
2023/01/01 03:05:28;;;;;;;21.90;9.93;;;;;;;4.75;100.00;99664.59;4334728;33;20134;-69
2023/01/01 03:08:03;;;;;;;25.90;10.65;;;;;;;4.64;100.00;99657.34;4346476;33;20137;-69
2023/01/01 03:11:02;;;;;;;23.35;11.15;;;;;;;4.59;100.00;99664.53;4358716;32;20122;-69
2023/01/01 03:13:57;;;;;;;19.40;10.13;;;;;;;4.52;100.00;99665.75;4360962;32;20121;-69
2023/01/01 03:16:35;;;;;;;22.55;9.07;;;;;;;4.54;100.00;99671.69;4348551;32;20111;-69
2023/01/01 03:19:34;;;;;;;20.12;9.43;;;;;;;4.51;100.00;99671.84;4405762;32;20169;-69
2023/01/01 03:22:09;;;;;;;21.27;10.30;;;;;;;4.52;100.00;99670.94;4372977;32;20578;-69
2023/01/01 03:24:47;;;;;;;19.40;9.10;;;;;;;4.42;100.00;99666.22;4378803;32;20325;-69
2023/01/01 03:27:18;;;;;;;21.48;10.35;;;;;;;4.34;100.00;99675.28;4378455;32;20114;-69
2023/01/01 03:29:46;;;;;;;22.17;9.45;;;;;;;4.35;100.00;99670.03;4378434;32;20098;-69
2023/01/01 03:32:20;;;;;;;17.77;9.10;;;;;;;4.35;100.00;99666.59;4378308;32;20189;-69
2023/01/01 03:34:52;;;;;;;19.27;9.38;;;;;;;4.28;100.00;99663.44;4378751;32;20082;-69
2023/01/01 03:37:25;;;;;;;20.55;9.73;;;;;;;4.28;100.00;99671.22;4391025;32;20618;-69
2023/01/01 03:39:56;;;;;;;16.00;8.13;;;;;;;4.25;100.00;99667.06;4390652;32;20235;-69
2023/01/01 03:42:42;;;;;;;20.65;9.32;;;;;;;4.21;100.00;99672.44;4378150;32;20160;-69
2023/01/01 03:45:17;;;;;;;20.83;9.80;;;;;;;4.25;100.00;99669.66;4378219;32;20098;-69
2023/01/01 03:47:45;;;;;;;19.83;9.88;;;;;;;4.26;100.00;99670.47;4390820;32;20098;-69
2023/01/01 03:50:13;;;;;;;19.05;9.82;;;;;;;4.28;100.00;99671.22;4378179;32;20144;-69
2023/01/01 03:53:07;;;;;;;20.00;9.80;;;;;;;4.37;100.00;99663.00;4378185;32;20483;-69
2023/01/01 03:55:38;;;;;;;23.92;9.85;;;;;;;4.35;100.00;99662.25;4378157;32;20444;-69
2023/01/01 03:58:25;;;;;;;17.65;9.05;;;;;;;4.28;100.00;99668.63;4392062;32;20144;-69
2023/01/01 04:01:01;;;;;;;20.60;10.55;;;;;;;4.26;100.00;99663.53;4423571;32;20216;-69
2023/01/01 04:03:30;;;;;;;23.87;10.55;;;;;;;4.28;100.00;99663.44;4422286;32;20440;-69
2023/01/01 04:05:57;;;;;;;17.77;9.35;;;;;;;4.30;100.00;99655.59;4422218;32;20478;-69
2023/01/01 04:08:24;;;;;;;19.20;9.38;;;;;;;4.28;100.00;99650.47;4423201;32;20185;-69
2023/01/01 04:10:55;;;;;;;24.85;9.43;;;;;;;4.26;100.00;99647.12;4406835;32;20156;-69
2023/01/01 04:13:22;;;;;;;23.30;10.00;;;;;;;4.26;100.00;99653.16;4406943;32;20538;-69
2023/01/01 04:15:50;;;;;;;18.95;9.43;;;;;;;4.24;100.00;99652.41;4407858;32;20120;-69
2023/01/01 04:18:17;;;;;;;19.27;9.57;;;;;;;4.18;100.00;99655.28;4420463;32;20145;-69
2023/01/01 04:20:44;;;;;;;19.40;9.35;;;;;;;4.13;100.00;99657.25;4424606;32;20119;-69
2023/01/01 04:23:11;;;;;;;21.42;9.45;;;;;;;4.12;100.00;99657.31;4438575;32;20220;-69
2023/01/01 04:25:39;;;;;;;22.33;10.95;;;;;;;4.13;100.00;99646.06;4438581;32;20105;-69
2023/01/01 04:28:06;;;;;;;27.95;11.20;;;;;;;4.28;100.00;99641.88;4438632;32;20443;-69
2023/01/01 04:30:33;;;;;;;28.17;12.95;;;;;;;4.41;100.00;99650.72;4438657;32;20093;-69
2023/01/01 04:32:59;;;;;;;27.17;13.13;;;;;;;4.46;100.00;99650.50;4438569;32;20145;-69
2023/01/01 04:35:26;;;;;;;30.30;14.50;;;;;;;4.77;100.00;99648.03;4438484;32;20121;-69
2023/01/01 04:37:53;;;;;;;33.28;16.02;;;;;;;5.06;100.00;99642.25;4438692;32;20438;-69
2023/01/01 04:40:20;;;;;;;36.88;18.23;;;;;;;5.28;100.00;99648.00;4438511;32;20291;-69
2023/01/01 04:42:47;;;;;;;38.70;16.70;;;;;;;5.32;100.00;99636.50;4438450;32;20086;-69
2023/01/01 04:45:14;;;;;;;39.05;18.05;;;;;;;5.31;100.00;99636.59;4438374;32;20580;-69
2023/01/01 04:47:42;;;;;;;37.55;19.00;;;;;;;5.28;100.00;99648.00;4438356;32;20165;-69
2023/01/01 04:50:09;;;;;;;46.50;19.95;;;;;;;5.22;100.00;99640.50;4438415;32;20116;-68
2023/01/01 04:52:36;;;;;;;44.88;20.27;;;;;;;5.20;100.00;99644.13;4438424;32;20097;-69
2023/01/01 04:55:04;;;;;;;47.85;20.05;;;;;;;5.25;100.00;99640.34;4438205;32;20097;-68
2023/01/01 04:57:31;;;;;;;52.72;19.80;;;;;;;5.22;100.00;99640.50;4438393;32;20172;-68
2023/01/01 04:59:58;;;;;;;51.63;21.80;;;;;;;5.09;100.00;99645.53;4438272;32;21017;-68
2023/01/01 05:02:25;;;;;;;50.83;21.17;;;;;;;5.08;100.00;99640.41;4438367;32;20545;-69
2023/01/01 05:04:53;;;;;;;52.47;21.15;;;;;;;5.11;100.00;99633.28;4438352;32;20105;-69
2023/01/01 05:07:20;;;;;;;47.67;22.30;;;;;;;5.09;100.00;99642.94;4438198;32;20104;-68
2023/01/01 05:09:47;;;;;;;56.10;25.10;;;;;;;5.02;100.00;99646.75;4429729;32;20093;-68
2023/01/01 05:12:15;;;;;;;55.45;22.27;;;;;;;4.93;100.00;99645.47;4422871;32;20094;-69
2023/01/01 05:14:42;;;;;;;51.92;22.42;;;;;;;5.04;100.00;99642.34;4422469;32;20180;-68
2023/01/01 05:17:09;;;;;;;51.45;21.70;;;;;;;5.09;100.00;99648.13;4422906;32;20155;-68
2023/01/01 05:19:36;;;;;;;50.65;22.17;;;;;;;4.97;100.00;99638.38;4422758;32;20471;-69
2023/01/01 05:22:03;;;;;;;62.15;22.33;;;;;;;4.96;100.00;99639.28;4432707;32;20094;-68
2023/01/01 05:24:36;;;;;;;52.35;22.30;;;;;;;4.97;100.00;99644.41;4437998;32;20081;-68
2023/01/01 05:27:04;;;;;;;47.62;21.62;;;;;;;5.03;100.00;99640.66;4438138;32;20105;-68
2023/01/01 05:29:31;;;;;;;52.62;22.05;;;;;;;5.06;100.00;99648.28;4438181;32;20426;-69
2023/01/01 05:31:58;;;;;;;56.03;23.00;;;;;;;5.08;100.00;99643.84;4437994;32;20211;-68
2023/01/01 05:34:26;;;;;;;56.03;22.15;;;;;;;4.94;100.00;99646.34;4438080;32;20522;-69
2023/01/01 05:36:53;;;;;;;44.30;20.62;;;;;;;4.87;100.00;99658.78;4438076;32;20125;-68
2023/01/01 05:39:20;;;;;;;45.83;21.48;;;;;;;4.94;100.00;99659.31;4438003;32;20180;-68
2023/01/01 05:41:47;;;;;;;58.80;21.05;;;;;;;4.91;100.00;99659.47;4438016;32;20237;-68
2023/01/01 05:44:16;;;;;;;45.12;20.33;;;;;;;4.89;100.00;99654.34;4438234;32;20085;-68
2023/01/01 05:46:43;;;;;;;46.35;19.87;;;;;;;4.92;100.00;99663.72;4437690;32;20625;-68
2023/01/01 05:49:11;;;;;;;43.97;20.77;;;;;;;4.79;100.00;99656.56;4437752;32;20123;-68
2023/01/01 05:51:38;;;;;;;36.40;17.27;;;;;;;4.75;100.00;99664.59;4437787;32;20102;-68
2023/01/01 05:54:04;;;;;;;40.53;18.23;;;;;;;4.98;100.00;99661.66;4437957;32;20526;-68
2023/01/01 05:56:31;;;;;;;39.17;17.70;;;;;;;5.05;100.00;99672.56;4437646;32;20705;-69
2023/01/01 05:59:00;;;;;;;38.63;17.85;;;;;;;5.00;100.00;99674.56;4437743;32;20093;-68
2023/01/01 06:01:29;;;;;;;42.90;18.42;;;;;;;5.02;100.00;99685.72;4437687;32;20168;-68
2023/01/01 06:03:58;;;;;;;34.90;15.52;;;;;;;4.98;100.00;99687.63;4437642;32;20098;-69
2023/01/01 06:06:27;;;;;;;39.95;17.40;;;;;;;4.90;100.00;99694.13;4437871;32;20098;-69
2023/01/01 06:08:57;;;;;;;34.80;15.57;;;;;;;5.01;100.00;99702.22;4434439;32;20136;-68
2023/01/01 06:11:24;;;;;;;32.47;15.57;;;;;;;4.99;100.00;99704.03;4422085;32;20140;-68
2023/01/01 06:13:53;;;;;;;39.83;17.17;;;;;;;5.01;100.00;99706.56;4422138;32;20533;-68
2023/01/01 06:16:20;;;;;;;53.60;21.75;;;;;;;5.02;100.00;99719.47;4422012;32;20170;-68
2023/01/01 06:18:47;;;;;;;56.28;24.27;;;;;;;4.87;100.00;99726.28;4422253;32;20102;-68
2023/01/01 06:21:21;;;;;;;49.00;22.00;;;;;;;4.67;100.00;99714.31;4426584;32;20097;-68
2023/01/01 06:23:48;;;;;;;40.12;19.60;;;;;;;4.42;100.00;99725.91;4437227;32;20211;-68
2023/01/01 06:26:20;;;;;;;47.42;22.10;;;;;;;4.30;100.00;99726.50;4437379;32;20448;-68
2023/01/01 06:28:48;;;;;;;54.28;27.92;;;;;;;4.01;100.00;99731.31;4439453;32;20538;-68
2023/01/01 06:31:17;;;;;;;87.53;22.52;;;;;;;3.98;100.00;99736.63;4439398;32;20123;-68
2023/01/01 06:33:44;;;;;;;85.80;23.10;;;;;;;3.92;100.00;99731.69;4439318;32;20109;-68
2023/01/01 06:36:13;;;;;;;95.78;23.10;;;;;;;3.78;100.00;99740.13;4439226;32;20412;-68
2023/01/01 06:38:43;;;;;;;77.28;21.50;;;;;;;3.75;100.00;99736.84;4439253;32;20242;-68
2023/01/01 06:41:12;;;;;;;56.15;22.23;;;;;;;3.84;100.00;99739.84;4439436;32;20106;-68
2023/01/01 06:43:39;;;;;;;47.97;21.65;;;;;;;3.80;100.00;99740.03;4439255;32;20164;-68
2023/01/01 06:46:21;;;;;;;46.72;22.10;;;;;;;3.91;100.00;99756.78;4439169;32;20128;-68
2023/01/01 06:48:54;;;;;;;48.50;22.10;;;;;;;3.95;100.00;99757.50;4439437;32;20085;-68
2023/01/01 06:51:23;;;;;;;42.97;20.73;;;;;;;3.87;100.00;99765.63;4439342;32;20081;-68
2023/01/01 06:53:51;;;;;;;44.33;21.87;;;;;;;3.99;100.00;99759.03;4439179;32;20493;-68
2023/01/01 06:56:19;;;;;;;48.45;22.48;;;;;;;3.98;100.00;99762.56;4439282;32;20467;-68
2023/01/01 06:58:46;;;;;;;42.20;21.23;;;;;;;4.11;100.00;99762.81;4439188;32;20176;-68
2023/01/01 07:01:17;;;;;;;49.75;22.37;;;;;;;4.08;100.00;99753.41;4439123;32;20147;-68
2023/01/01 07:03:50;;;;;;;40.63;21.20;;;;;;;4.14;100.00;99746.28;4439139;32;20109;-68
2023/01/01 07:06:18;;;;;;;44.60;20.17;;;;;;;4.22;100.00;99752.78;4439314;32;20434;-68
2023/01/01 07:08:46;;;;;;;45.53;19.30;;;;;;;4.34;100.00;99755.69;4436947;32;20929;-68
2023/01/01 07:11:13;;;;;;;38.35;18.37;;;;;;;4.56;100.00;99758.13;4423822;32;20097;-68
2023/01/01 07:13:40;;;;;;;33.47;16.77;;;;;;;4.68;100.00;99756.66;4423703;32;20098;-69
2023/01/01 07:16:07;;;;;;;38.78;16.23;;;;;;;4.83;100.00;99755.06;4423676;32;20165;-68
2023/01/01 07:18:39;;;;;;;36.78;16.73;;;;;;;5.04;100.00;99753.16;4423645;32;20101;-69
2023/01/01 07:21:33;;;;;;;33.90;15.88;;;;;;;5.21;100.00;99762.69;4427555;32;20182;-69
2023/01/01 07:24:03;;;;;;;27.75;13.70;;;;;;;5.44;100.00;99749.34;4438573;32;20147;-69
2023/01/01 07:26:31;;;;;;;31.23;14.52;;;;;;;5.55;100.00;99745.34;4439128;32;20435;-69
2023/01/01 07:28:59;;;;;;;28.87;13.55;;;;;;;5.69;100.00;99750.66;4439148;32;20159;-69
2023/01/01 07:31:41;;;;;;;28.87;13.48;;;;;;;5.96;100.00;99742.28;4439470;32;20515;-69
2023/01/01 07:34:12;;;;;;;25.67;13.62;;;;;;;6.19;100.00;99749.72;4438966;32;20145;-69
2023/01/01 07:36:40;;;;;;;26.00;13.57;;;;;;;6.30;100.00;99741.31;4439095;32;20085;-69
2023/01/01 07:39:07;;;;;;;29.63;13.77;;;;;;;6.41;100.00;99735.50;4438743;32;20127;-69
2023/01/01 07:41:35;;;;;;;23.73;12.37;;;;;;;6.48;100.00;99744.63;4438797;32;20130;-69
2023/01/01 07:44:02;;;;;;;28.55;13.93;;;;;;;6.54;100.00;99744.28;4438911;32;20089;-69
2023/01/01 07:46:29;;;;;;;25.55;12.95;;;;;;;6.50;100.00;99747.97;4438635;32;20455;-69
2023/01/01 07:48:57;;;;;;;28.12;13.88;;;;;;;6.48;100.00;99749.84;4438809;32;20102;-69
2023/01/01 07:51:24;;;;;;;25.60;13.27;;;;;;;6.53;100.00;99752.19;4438635;32;20584;-69
2023/01/01 07:53:51;;;;;;;25.42;12.48;;;;;;;6.71;100.00;99752.91;4438667;32;20147;-69
2023/01/01 07:56:19;;;;;;;24.35;12.48;;;;;;;6.62;100.00;99767.28;4438861;32;20449;-69
2023/01/01 07:58:46;;;;;;;25.40;11.15;;;;;;;6.74;100.00;99758.75;4438817;32;20474;-69
2023/01/01 08:01:13;;;;;;;22.62;11.75;;;;;;;6.79;100.00;99762.88;4438667;32;20182;-69
2023/01/01 08:03:41;;;;;;;25.23;10.95;;;;;;;6.96;100.00;99761.88;4438896;32;20102;-69
2023/01/01 08:06:11;;;;;;;23.17;12.20;;;;;;;7.02;100.00;99766.75;4438618;32;20176;-69
2023/01/01 08:08:38;;;;;;;20.73;10.57;;;;;;;6.98;100.00;99773.91;4437460;32;20390;-69
2023/01/01 08:11:06;;;;;;;23.23;10.65;;;;;;;7.02;100.00;99777.16;4423345;32;20158;-69
2023/01/01 08:13:33;;;;;;;28.08;12.20;;;;;;;7.22;100.00;99775.97;4423262;32;20139;-69
2023/01/01 08:16:00;;;;;;;22.25;10.23;;;;;;;7.26;100.00;99782.69;4423257;32;20624;-70
2023/01/01 08:18:29;;;;;;;22.13;11.35;;;;;;;7.26;100.00;99785.31;4423103;32;20497;-69
2023/01/01 08:20:56;;;;;;;15.85;10.23;;;;;;;7.42;100.00;99798.28;4425927;32;20100;-69
2023/01/01 08:23:23;;;;;;;19.90;9.93;;;;;;;7.48;100.00;99797.91;4424351;32;20097;-69
2023/01/01 08:25:51;;;;;;;35.58;15.07;;;;;;;7.42;100.00;99799.09;4438552;32;20173;-69
2023/01/01 08:28:18;;;;;;;37.47;17.12;;;;;;;7.48;100.00;99800.53;4438779;32;20558;-69
2023/01/01 08:30:46;;;;;;;25.45;12.55;;;;;;;7.59;100.00;99800.69;4438588;32;20105;-69
2023/01/01 08:33:14;;;;;;;24.67;11.75;;;;;;;7.58;100.00;99806.84;4438623;32;20455;-69
2023/01/01 08:35:41;;;;;;;21.27;10.77;;;;;;;7.80;100.00;99811.59;4438696;32;20101;-69
2023/01/01 08:38:10;;;;;;;21.17;10.63;;;;;;;7.89;100.00;99806.75;4438548;32;20635;-69
2023/01/01 08:40:38;;;;;;;20.08;10.38;;;;;;;7.89;100.00;99797.16;4438498;32;20101;-69
2023/01/01 08:43:05;;;;;;;18.98;9.70;;;;;;;8.15;100.00;99803.34;4438656;32;20162;-69
2023/01/01 08:45:32;;;;;;;18.67;10.05;;;;;;;7.95;100.00;99802.00;4438597;32;20128;-69
2023/01/01 08:48:00;;;;;;;20.10;10.43;;;;;;;7.92;100.00;99798.75;4438554;32;20123;-69
2023/01/01 08:50:27;;;;;;;18.65;9.43;;;;;;;8.12;100.00;99789.69;4437425;32;20089;-69
2023/01/01 08:52:54;;;;;;;19.92;10.25;;;;;;;8.26;100.00;99789.63;4438753;32;20494;-69
2023/01/01 08:55:21;;;;;;;15.07;9.50;;;;;;;8.43;100.00;99795.56;4438219;32;20127;-69
2023/01/01 08:57:48;;;;;;;25.88;9.68;;;;;;;8.40;100.00;99786.13;4438504;32;20101;-69
2023/01/01 09:00:16;;;;;;;20.95;10.50;;;;;;;8.64;100.00;99794.19;4438376;32;20097;-69
2023/01/01 09:02:44;;;;;;;16.37;9.65;;;;;;;8.50;100.00;99781.22;4438498;32;20405;-69
2023/01/01 09:05:11;;;;;;;19.00;9.32;;;;;;;8.51;100.00;99795.94;4438248;32;20112;-69
2023/01/01 09:07:38;;;;;;;19.17;10.15;;;;;;;8.39;100.00;99797.53;4438657;32;20155;-69
2023/01/01 09:10:06;;;;;;;25.45;11.77;;;;;;;8.34;100.00;99799.59;4427960;32;20109;-69
2023/01/01 09:12:33;;;;;;;19.30;10.10;;;;;;;8.38;100.00;99802.84;4423093;32;20162;-69
2023/01/01 09:15:02;;;;;;;19.30;10.23;;;;;;;8.46;100.00;99800.63;4422957;32;20090;-69
2023/01/01 09:17:29;;;;;;;21.23;10.25;;;;;;;8.52;100.00;99806.31;4422665;32;20199;-69
2023/01/01 09:19:56;;;;;;;19.70;10.43;;;;;;;8.50;100.00;99812.53;4422846;32;20117;-69
2023/01/01 09:22:23;;;;;;;21.27;12.00;;;;;;;8.69;100.00;99801.72;4434755;32;20184;-69
2023/01/01 09:24:50;;;;;;;21.35;10.25;;;;;;;8.53;100.00;99809.75;4437983;32;20450;-69
2023/01/01 09:27:17;;;;;;;18.83;10.18;;;;;;;8.54;100.00;99803.59;4438232;32;20127;-69
2023/01/01 09:29:44;;;;;;;19.62;10.80;;;;;;;8.66;100.00;99800.19;4438048;32;20105;-69
2023/01/01 09:32:12;;;;;;;22.05;10.88;;;;;;;8.67;100.00;99814.91;4438134;32;20124;-70
2023/01/01 09:34:39;;;;;;;18.80;10.35;;;;;;;8.63;100.00;99812.59;4437971;32;20124;-69
2023/01/01 09:37:06;;;;;;;18.00;9.30;;;;;;;8.70;100.00;99803.41;4438083;32;20129;-69
2023/01/01 09:39:33;;;;;;;17.08;8.50;;;;;;;8.85;100.00;99799.81;4437930;32;20188;-70
2023/01/01 09:42:12;;;;;;;18.10;9.57;;;;;;;8.92;100.00;99807.22;4438023;32;20104;-69
2023/01/01 09:44:57;;;;;;;23.05;10.82;;;;;;;9.15;100.00;99803.94;4437906;32;20149;-69
2023/01/01 09:47:33;;;;;;;16.15;8.95;;;;;;;9.19;100.00;99799.34;4437920;32;20094;-69
2023/01/01 09:50:12;;;;;;;17.52;8.80;;;;;;;9.27;100.00;99794.44;4437744;32;21021;-69
2023/01/01 09:53:00;;;;;;;15.73;9.05;;;;;;;9.32;100.00;99792.34;4437764;32;20467;-70
2023/01/01 09:55:41;;;;;;;18.42;9.82;;;;;;;9.26;100.00;99799.78;4437555;32;20146;-69
2023/01/01 09:58:10;;;;;;;18.45;10.02;;;;;;;9.42;100.00;99803.03;4438164;32;20194;-69
2023/01/01 10:00:45;;;;;;;19.08;10.18;;;;;;;9.26;100.00;99808.44;4424108;32;20132;-69
2023/01/01 10:03:28;;;;;;;16.00;9.10;;;;;;;9.32;100.00;99805.44;4426043;32;20480;-69
2023/01/01 10:06:20;;;;;;;19.00;9.27;;;;;;;9.52;100.00;99805.84;4425883;32;20443;-70
2023/01/01 10:09:01;;;;;;;19.95;10.38;;;;;;;9.65;100.00;99809.31;4437288;32;20494;-69
2023/01/01 10:11:39;;;;;;;18.42;9.68;;;;;;;9.67;100.00;99809.19;4424161;32;20089;-69
2023/01/01 10:14:28;;;;;;;19.48;9.35;;;;;;;9.86;100.00;99808.78;4424171;32;20082;-69
2023/01/01 10:16:56;;;;;;;13.60;8.20;;;;;;;9.92;100.00;99801.31;4423934;32;20165;-69
2023/01/01 10:19:33;;;;;;;18.02;8.93;;;;;;;9.93;100.00;99800.38;4424008;32;20123;-70
2023/01/01 10:22:06;;;;;;;15.88;8.23;;;;;;;9.99;100.00;99803.50;4419767;32;20100;-69
2023/01/01 10:24:45;;;;;;;19.70;10.23;;;;;;;10.03;100.00;99797.94;4439087;32;20547;-70
2023/01/01 10:27:40;;;;;;;19.08;8.05;;;;;;;10.30;100.00;99794.31;4439488;32;20509;-69
2023/01/01 10:30:17;;;;;;;17.12;8.10;;;;;;;10.47;100.00;99796.56;4424304;32;20458;-69
2023/01/01 10:32:47;;;;;;;14.52;7.62;;;;;;;10.42;100.00;99796.09;4439407;32;20080;-69
2023/01/01 10:35:29;;;;;;;13.55;7.90;;;;;;;10.66;100.00;99792.63;4439376;32;20519;-69
2023/01/01 10:38:00;;;;;;;13.77;7.43;;;;;;;10.67;100.00;99791.66;4439453;32;20181;-69
2023/01/01 10:40:29;;;;;;;16.87;7.95;;;;;;;10.62;100.00;99784.16;4425371;32;20113;-69
2023/01/01 10:42:58;;;;;;;16.87;8.82;;;;;;;10.63;100.00;99782.38;4439262;32;20096;-69
2023/01/01 10:45:42;;;;;;;19.12;9.15;;;;;;;10.71;100.00;99773.97;4439117;32;20160;-69
2023/01/01 10:48:17;;;;;;;18.33;9.02;;;;;;;10.88;100.00;99764.84;4425512;32;20102;-69
2023/01/01 10:50:45;;;;;;;18.98;8.45;;;;;;;10.94;100.00;99762.56;4439201;32;20150;-69
2023/01/01 10:53:25;;;;;;;20.30;8.32;;;;;;;11.01;100.00;99773.47;4439302;32;20407;-69
2023/01/01 10:56:00;;;;;;;16.60;8.63;;;;;;;11.05;100.00;99769.62;4439139;32;20103;-69
2023/01/01 10:58:37;;;;;;;19.30;8.05;;;;;;;11.14;100.00;99760.25;4439419;32;20155;-69
2023/01/01 11:01:07;;;;;;;12.63;8.13;;;;;;;11.17;100.00;99760.00;4439258;32;20101;-69
2023/01/01 11:03:36;;;;;;;15.43;7.97;;;;;;;11.39;100.00;99763.63;4439260;32;20836;-69
2023/01/01 11:06:04;;;;;;;14.25;8.23;;;;;;;11.37;100.00;99753.25;4439142;32;20468;-69
2023/01/01 11:08:33;;;;;;;12.43;7.28;;;;;;;11.58;100.00;99753.38;4438711;32;20200;-69
2023/01/01 11:11:01;;;;;;;15.25;8.25;;;;;;;11.57;100.00;99746.47;4423801;32;20093;-69
2023/01/01 11:13:29;;;;;;;16.60;8.07;;;;;;;11.72;100.00;99739.19;4423162;32;20427;-69
2023/01/01 11:15:57;;;;;;;15.52;7.62;;;;;;;11.78;100.00;99732.59;4423639;32;20181;-70
2023/01/01 11:18:34;;;;;;;16.25;8.90;;;;;;;11.72;100.00;99718.19;4409901;32;20158;-69
2023/01/01 11:21:03;;;;;;;16.65;9.30;;;;;;;11.83;100.00;99710.28;4427103;32;20494;-69
2023/01/01 11:23:36;;;;;;;14.50;8.90;;;;;;;11.95;100.00;99708.50;4425008;32;20124;-69
2023/01/01 11:26:03;;;;;;;20.10;10.05;;;;;;;12.24;100.00;99727.16;4439117;32;20521;-69
2023/01/01 11:28:33;;;;;;;18.85;8.88;;;;;;;12.31;100.00;99719.63;4439065;32;20152;-69
2023/01/01 11:31:05;;;;;;;16.67;9.85;;;;;;;12.42;100.00;99724.03;4439048;32;20088;-69
2023/01/01 11:33:42;;;;;;;17.00;9.13;;;;;;;12.57;100.00;99729.81;4425312;32;20116;-69
2023/01/01 11:36:10;;;;;;;17.27;9.20;;;;;;;12.69;100.00;99734.06;4439022;32;20073;-69
2023/01/01 11:38:37;;;;;;;16.05;9.85;;;;;;;12.67;100.00;99727.25;4424978;32;20113;-69